Time;durP1;ratioP1;P1;durP2;ratioP2;P2;SDS_P1;SDS_P2;PMS_P1;PMS_P2;Temp;Humidity;BMP_temperature;BMP_pressure;BME280_temperature;BME280_humidity;BME280_pressure;Samples;Min_cycle;Max_cycle;Signal;HPM_P1;HPM_P2
2022/01/28 00:02:49;;;;;;;20.77;1.98;;;7.20;98.20;;;;;;5055152;28;20456;-78
2022/01/28 00:05:19;;;;;;;19.42;1.75;;;7.20;98.10;;;;;;5045295;28;20553;-78
2022/01/28 00:07:45;;;;;;;18.60;1.75;;;7.20;98.00;;;;;;5036194;28;20049;-78
2022/01/28 00:10:11;;;;;;;22.25;1.80;;;7.20;97.90;;;;;;5037489;28;20041;-79
2022/01/28 00:13:01;;;;;;;17.08;1.65;;;7.20;97.90;;;;;;5049271;28;20480;-78
2022/01/28 00:16:40;;;;;;;19.85;2.08;;;7.10;97.60;;;;;;5051609;28;20037;-78
2022/01/28 00:36:27;;;;;;;15.63;1.40;;;7.10;97.70;;;;;;5052939;28;20507;-78
2022/01/28 00:37:48;;;;;;;18.40;1.73;;;7.10;97.20;;;;;;5052637;28;20055;-79
2022/01/28 00:40:10;;;;;;;11.88;1.50;;;7.10;97.10;;;;;;5052095;28;20032;-79
2022/01/28 00:42:36;;;;;;;17.05;1.83;;;7.10;96.90;;;;;;5053055;28;20087;-79
2022/01/28 00:45:02;;;;;;;16.02;1.63;;;7.00;97.00;;;;;;5052933;28;20511;-79
2022/01/28 00:47:28;;;;;;;15.68;1.70;;;7.00;96.90;;;;;;5052297;28;20721;-79
2022/01/28 00:49:53;;;;;;;15.68;1.65;;;6.90;96.90;;;;;;5052942;28;20047;-79
2022/01/28 00:52:19;;;;;;;15.25;1.83;;;6.90;97.00;;;;;;5052172;28;20139;-79
2022/01/28 00:54:44;;;;;;;19.48;1.60;;;6.90;97.00;;;;;;5052783;28;20083;-80
2022/01/28 00:57:10;;;;;;;19.45;1.70;;;6.80;97.00;;;;;;5052386;28;20025;-78
2022/01/28 00:59:36;;;;;;;13.63;1.40;;;6.80;97.00;;;;;;5052450;28;20029;-80
2022/01/28 01:02:02;;;;;;;19.60;1.90;;;6.80;97.10;;;;;;5052883;28;20028;-79
2022/01/28 01:04:27;;;;;;;26.38;1.85;;;6.80;97.10;;;;;;5053147;28;20040;-80
2022/01/28 01:06:53;;;;;;;11.35;1.33;;;6.80;97.10;;;;;;5052808;28;20105;-79
2022/01/28 01:09:18;;;;;;;21.65;1.83;;;6.80;97.20;;;;;;5050741;28;20025;-79
2022/01/28 01:11:44;;;;;;;17.83;1.88;;;6.80;97.00;;;;;;5052053;28;20029;-79
2022/01/28 01:14:11;;;;;;;18.50;1.70;;;6.80;97.00;;;;;;5051607;28;20404;-79
2022/01/28 01:16:56;;;;;;;22.60;1.75;;;6.80;96.90;;;;;;5052074;28;20499;-79
2022/01/28 01:19:25;;;;;;;17.77;1.67;;;6.80;96.90;;;;;;5051124;28;20112;-79
2022/01/28 01:21:55;;;;;;;14.95;1.65;;;6.80;96.90;;;;;;5051966;28;20108;-79
2022/01/28 01:24:23;;;;;;;19.38;1.50;;;6.80;96.90;;;;;;5051557;28;20032;-80
2022/01/28 01:26:49;;;;;;;20.50;2.45;;;6.80;96.90;;;;;;5053692;28;20111;-79
2022/01/28 01:29:18;;;;;;;17.55;2.22;;;6.80;96.90;;;;;;5055269;28;20028;-79
2022/01/28 01:31:44;;;;;;;15.13;1.67;;;6.80;97.00;;;;;;5059435;28;20029;-79
2022/01/28 01:34:15;;;;;;;18.30;1.73;;;6.80;97.10;;;;;;5052987;28;20041;-79
2022/01/28 01:36:41;;;;;;;18.13;1.98;;;6.80;96.90;;;;;;5051941;28;20017;-78
2022/01/28 01:39:08;;;;;;;18.58;1.88;;;6.80;96.90;;;;;;5051514;28;20112;-79
2022/01/28 01:41:40;;;;;;;16.95;1.92;;;6.80;96.90;;;;;;5052349;28;20029;-79
2022/01/28 01:44:21;;;;;;;15.95;1.90;;;6.80;96.90;;;;;;5052018;28;20028;-80
2022/01/28 01:47:14;;;;;;;15.68;1.52;;;6.80;96.80;;;;;;5053364;28;20060;-80
2022/01/28 01:52:16;;;;;;;25.33;1.92;;;6.80;97.00;;;;;;5053051;28;20647;-80
2022/01/28 01:54:43;;;;;;;13.95;1.60;;;6.80;97.10;;;;;;5052302;28;20135;-81
2022/01/28 01:57:11;;;;;;;23.15;1.95;;;6.80;97.20;;;;;;5053002;28;20040;-80
2022/01/28 01:59:41;;;;;;;23.65;2.40;;;6.80;97.10;;;;;;5052262;28;20060;-79
2022/01/28 02:02:07;;;;;;;16.98;2.17;;;6.70;97.10;;;;;;5052879;28;20112;-79
2022/01/28 02:04:33;;;;;;;22.00;1.98;;;6.70;97.30;;;;;;5052492;28;20086;-79
2022/01/28 02:07:00;;;;;;;17.33;1.67;;;6.70;97.30;;;;;;5052125;28;20048;-79
2022/01/28 02:09:26;;;;;;;18.05;1.50;;;6.70;97.30;;;;;;5052351;28;20108;-81
2022/01/28 02:11:52;;;;;;;20.98;1.85;;;6.70;97.30;;;;;;5052555;28;20079;-78
2022/01/28 02:14:18;;;;;;;16.67;1.77;;;6.70;97.40;;;;;;5051989;28;20102;-78
2022/01/28 02:16:44;;;;;;;19.25;2.28;;;6.70;97.30;;;;;;5052952;28;20037;-78
2022/01/28 02:19:09;;;;;;;19.13;1.98;;;6.70;97.30;;;;;;5051872;28;20132;-78
2022/01/28 02:21:45;;;;;;;19.10;1.67;;;6.70;97.20;;;;;;5052729;28;20021;-78
2022/01/28 02:24:14;;;;;;;13.57;1.20;;;6.70;97.10;;;;;;5052381;28;20469;-78
2022/01/28 02:26:40;;;;;;;15.95;1.40;;;6.70;97.10;;;;;;5053530;28;20029;-78
2022/01/28 02:29:11;;;;;;;18.25;2.45;;;6.80;97.10;;;;;;5071191;28;20036;-77
2022/01/28 02:31:37;;;;;;;15.45;1.65;;;6.80;97.00;;;;;;5076437;28;20021;-78
2022/01/28 02:34:04;;;;;;;15.70;1.55;;;6.80;97.00;;;;;;5055499;28;20091;-78
2022/01/28 02:36:30;;;;;;;15.02;1.65;;;6.80;97.00;;;;;;5055843;28;20025;-78
2022/01/28 02:38:58;;;;;;;13.65;1.48;;;6.80;96.90;;;;;;5055220;28;20032;-79
2022/01/28 02:41:27;;;;;;;15.93;1.92;;;6.80;96.90;;;;;;5055826;28;20078;-79
2022/01/28 02:46:36;;;;;;;14.20;1.20;;;6.80;96.90;;;;;;5055742;28;20029;-78
2022/01/28 02:49:08;;;;;;;17.08;1.13;;;6.80;97.00;;;;;;5055850;28;20590;-78
2022/01/28 02:51:34;;;;;;;20.70;1.88;;;6.80;97.10;;;;;;5055753;28;20104;-78
2022/01/28 02:54:11;;;;;;;17.90;1.52;;;6.80;97.00;;;;;;5055753;28;20040;-78
2022/01/28 02:56:39;;;;;;;18.20;1.48;;;6.80;97.10;;;;;;5055669;28;20036;-78
2022/01/28 02:59:06;;;;;;;15.38;1.33;;;6.80;97.10;;;;;;5056014;28;20033;-79
2022/01/28 03:01:32;;;;;;;14.32;1.38;;;6.80;97.20;;;;;;5055572;28;20028;-78
2022/01/28 03:04:01;;;;;;;11.70;1.05;;;6.80;97.30;;;;;;5055277;28;20108;-79
2022/01/28 03:06:27;;;;;;;11.43;0.80;;;6.80;97.20;;;;;;5054920;28;20103;-78
2022/01/28 03:09:03;;;;;;;14.80;1.50;;;6.70;97.30;;;;;;5055358;28;20045;-79
2022/01/28 03:16:28;;;;;;;19.65;2.30;;;6.70;97.40;;;;;;5054997;28;20052;-78
2022/01/28 03:18:58;;;;;;;14.45;1.88;;;6.60;97.70;;;;;;5055586;28;20044;-78
2022/01/28 03:21:37;;;;;;;16.95;1.63;;;6.60;97.60;;;;;;5055702;28;20039;-81
2022/01/28 03:24:06;;;;;;;20.42;1.63;;;6.60;97.60;;;;;;5055251;28;20036;-80
2022/01/28 03:26:31;;;;;;;11.50;0.73;;;6.60;97.60;;;;;;5058592;28;20033;-80
2022/01/28 03:28:57;;;;;;;20.65;1.58;;;6.60;97.60;;;;;;5061341;28;20091;-79
2022/01/28 03:31:23;;;;;;;15.88;1.75;;;6.60;97.90;;;;;;5057258;28;20036;-79
2022/01/28 03:33:48;;;;;;;20.48;2.88;;;6.60;97.90;;;;;;5054722;28;20450;-79
2022/01/28 03:36:14;;;;;;;20.60;2.15;;;6.60;97.60;;;;;;5050616;28;20030;-79
2022/01/28 03:38:42;;;;;;;15.20;1.58;;;6.60;97.60;;;;;;5046778;28;20024;-79
2022/01/28 03:41:13;;;;;;;13.30;1.60;;;6.60;97.60;;;;;;5050472;28;20520;-79
2022/01/28 03:43:39;;;;;;;16.10;1.48;;;6.60;97.50;;;;;;5047189;28;20033;-79
2022/01/28 03:46:05;;;;;;;14.57;1.30;;;6.70;97.60;;;;;;5041827;28;20029;-79
2022/01/28 03:48:31;;;;;;;14.73;1.20;;;6.60;97.40;;;;;;5036852;28;20025;-79
2022/01/28 03:50:56;;;;;;;15.48;1.80;;;6.60;97.50;;;;;;5041444;28;20411;-79
2022/01/28 03:53:22;;;;;;;13.38;1.65;;;6.60;97.50;;;;;;5034765;28;20076;-79
2022/01/28 03:55:49;;;;;;;11.98;1.45;;;6.60;97.50;;;;;;5047274;28;20113;-79
2022/01/28 03:58:15;;;;;;;15.70;1.27;;;6.60;97.50;;;;;;5035146;28;20564;-79
2022/01/28 04:00:40;;;;;;;13.02;1.40;;;6.60;97.70;;;;;;5051321;28;20118;-79
2022/01/28 04:13:50;;;;;;;17.10;1.90;;;6.70;97.30;;;;;;5040307;28;20391;-78
2022/01/28 04:16:30;;;;;;;20.40;1.88;;;6.60;97.30;;;;;;5054381;28;20386;-78
2022/01/28 04:19:01;;;;;;;15.63;1.15;;;6.60;97.40;;;;;;5042578;28;20021;-78
2022/01/28 04:21:29;;;;;;;15.10;1.35;;;6.60;97.40;;;;;;5054295;28;20035;-80
2022/01/28 04:23:54;;;;;;;14.07;1.00;;;6.60;97.40;;;;;;5055179;28;20136;-80
2022/01/28 04:26:20;;;;;;;13.75;1.17;;;6.70;97.50;;;;;;5070178;28;20033;-79
2022/01/28 04:28:46;;;;;;;13.98;1.25;;;6.70;97.70;;;;;;5057874;28;20024;-80
2022/01/28 04:31:11;;;;;;;14.77;1.48;;;6.70;97.50;;;;;;5053973;28;20028;-81
2022/01/28 04:33:37;;;;;;;16.05;1.35;;;6.80;97.40;;;;;;5054216;28;20083;-81
2022/01/28 04:36:04;;;;;;;20.33;1.25;;;6.70;97.40;;;;;;5054578;28;20346;-81
2022/01/28 04:38:45;;;;;;;16.67;1.30;;;6.80;97.50;;;;;;5054279;28;20025;-78
2022/01/28 04:41:20;;;;;;;16.08;2.05;;;6.80;97.40;;;;;;5054373;28;20078;-80
2022/01/28 04:43:52;;;;;;;21.00;1.60;;;6.80;97.30;;;;;;5054467;28;20053;-80
2022/01/28 04:48:58;;;;;;;14.60;1.15;;;6.80;97.30;;;;;;5053185;28;20033;-80
2022/01/28 04:54:20;;;;;;;11.70;1.15;;;6.80;97.30;;;;;;5053409;28;20037;-80
2022/01/28 05:02:12;;;;;;;13.65;1.60;;;6.80;97.30;;;;;;5053391;28;20029;-83
2022/01/28 05:05:34;;;;;;;13.45;1.20;;;6.70;97.30;;;;;;5053852;28;20036;-81
2022/01/28 05:07:45;;;;;;;15.55;1.98;;;6.70;97.30;;;;;;5051757;28;20028;-81
2022/01/28 05:15:32;;;;;;;11.63;1.10;;;6.70;97.40;;;;;;5053170;28;20066;-81
2022/01/28 05:28:34;;;;;;;16.75;1.80;;;6.80;97.40;;;;;;5063177;28;20045;-80
2022/01/28 05:31:00;;;;;;;16.00;1.35;;;6.90;97.40;;;;;;5053595;28;20036;-80
2022/01/28 05:33:26;;;;;;;15.43;1.40;;;6.90;97.30;;;;;;5053749;28;20033;-79
2022/01/28 05:35:51;;;;;;;15.68;1.30;;;6.90;97.30;;;;;;5052867;28;20374;-80
2022/01/28 05:38:17;;;;;;;14.80;1.50;;;6.90;97.30;;;;;;5052692;28;20037;-78
2022/01/28 05:40:43;;;;;;;10.85;0.80;;;6.90;97.30;;;;;;5052997;28;20392;-79
2022/01/28 05:43:08;;;;;;;11.85;1.30;;;6.90;97.60;;;;;;5052869;28;20032;-80
2022/01/28 05:45:34;;;;;;;14.77;1.10;;;7.00;98.20;;;;;;5052860;28;20021;-80
2022/01/28 05:48:00;;;;;;;13.65;1.40;;;7.10;98.40;;;;;;5053010;28;20438;-80
2022/01/28 05:50:26;;;;;;;12.32;1.20;;;7.10;98.50;;;;;;5052763;28;20037;-80
2022/01/28 05:52:51;;;;;;;15.52;1.13;;;7.20;98.70;;;;;;5053070;28;20361;-81
2022/01/28 05:55:17;;;;;;;11.60;1.52;;;7.30;99.10;;;;;;5052003;28;20381;-80
2022/01/28 05:57:43;;;;;;;11.98;1.40;;;7.30;98.30;;;;;;5052797;28;20029;-80
2022/01/28 06:00:09;;;;;;;10.60;1.52;;;7.30;98.20;;;;;;5052593;28;20083;-80
2022/01/28 06:02:34;;;;;;;11.48;1.40;;;7.40;98.10;;;;;;5053329;28;20033;-81
2022/01/28 06:05:00;;;;;;;11.98;1.60;;;7.40;98.20;;;;;;5054699;28;20526;-80
2022/01/28 06:07:26;;;;;;;15.43;1.48;;;7.50;97.90;;;;;;5056289;28;20052;-80
2022/01/28 06:09:51;;;;;;;19.83;2.88;;;7.50;97.80;;;;;;5055992;28;20021;-81
2022/01/28 06:12:17;;;;;;;10.88;1.33;;;7.50;97.80;;;;;;5056748;28;20412;-81
2022/01/28 06:14:42;;;;;;;17.90;1.60;;;7.50;97.40;;;;;;5056639;28;20040;-83
2022/01/28 06:17:08;;;;;;;14.18;1.05;;;7.60;97.80;;;;;;5056013;28;20329;-81
2022/01/28 06:19:34;;;;;;;13.98;1.25;;;7.50;97.60;;;;;;5056491;28;20032;-78
2022/01/28 06:21:59;;;;;;;13.32;1.35;;;7.60;97.30;;;;;;5055664;28;20102;-79
2022/01/28 06:24:25;;;;;;;11.73;1.58;;;7.60;97.20;;;;;;5056142;28;20055;-78
2022/01/28 06:26:50;;;;;;;14.45;1.42;;;7.70;96.80;;;;;;5055430;28;20045;-77
2022/01/28 06:29:16;;;;;;;14.05;1.23;;;7.60;96.50;;;;;;5055277;28;20051;-79
2022/01/28 06:31:43;;;;;;;9.60;1.13;;;7.60;96.50;;;;;;5055239;28;20017;-78
2022/01/28 06:34:09;;;;;;;16.98;1.25;;;7.60;96.50;;;;;;5055117;28;20032;-79
2022/01/28 06:36:35;;;;;;;12.02;0.90;;;7.60;96.70;;;;;;5055044;28;20021;-78
2022/01/28 06:39:01;;;;;;;13.25;1.77;;;7.60;96.60;;;;;;5055010;28;20127;-79
2022/01/28 06:41:27;;;;;;;10.10;1.00;;;7.50;96.50;;;;;;5054871;28;20504;-77
2022/01/28 06:43:52;;;;;;;12.25;1.30;;;7.50;96.60;;;;;;5054195;28;20021;-77
2022/01/28 06:46:18;;;;;;;12.77;1.20;;;7.60;96.80;;;;;;5054746;28;20492;-76
2022/01/28 06:48:43;;;;;;;16.02;1.17;;;7.50;96.80;;;;;;5042786;28;20031;-77
2022/01/28 06:51:09;;;;;;;12.82;1.48;;;7.60;96.70;;;;;;5043716;28;20025;-77
2022/01/28 06:53:35;;;;;;;13.88;1.27;;;7.60;96.60;;;;;;5051764;28;20037;-78
2022/01/28 06:56:01;;;;;;;19.23;1.98;;;7.60;96.60;;;;;;5045870;28;20029;-85
2022/01/28 06:58:26;;;;;;;12.00;2.00;;;7.60;96.60;;;;;;5037249;28;20045;-83
2022/01/28 07:00:52;;;;;;;12.90;1.95;;;7.60;96.50;;;;;;5042772;28;20454;-83
2022/01/28 07:03:17;;;;;;;14.57;1.40;;;7.70;96.40;;;;;;5053946;28;20025;-84
2022/01/28 07:05:43;;;;;;;13.30;1.75;;;7.70;96.60;;;;;;5054054;28;20480;-80
2022/01/28 07:08:09;;;;;;;12.63;1.75;;;7.70;96.40;;;;;;5054352;28;20477;-81
2022/01/28 07:10:36;;;;;;;12.50;2.03;;;7.70;96.40;;;;;;5054740;28;20387;-80
2022/01/28 07:13:02;;;;;;;12.23;2.17;;;7.70;96.30;;;;;;5054449;28;20125;-79
2022/01/28 07:15:28;;;;;;;10.95;1.55;;;7.70;96.20;;;;;;5053441;28;20463;-79
2022/01/28 07:17:57;;;;;;;14.90;1.58;;;7.70;96.10;;;;;;5053547;28;20048;-78
2022/01/28 07:20:22;;;;;;;11.52;2.25;;;7.70;96.10;;;;;;5055342;28;20068;-76
2022/01/28 07:22:48;;;;;;;12.65;2.45;;;7.70;96.10;;;;;;5054754;28;20056;-77
2022/01/28 07:25:14;;;;;;;14.07;2.50;;;7.70;96.10;;;;;;5055976;28;20029;-81
2022/01/28 07:27:40;;;;;;;10.07;2.30;;;7.80;96.10;;;;;;5054372;28;20037;-81
2022/01/28 07:30:07;;;;;;;16.90;3.20;;;7.80;96.00;;;;;;5055085;28;20028;-85
2022/01/28 07:32:34;;;;;;;9.70;1.92;;;7.70;95.60;;;;;;5054085;28;20059;-87
2022/01/28 07:35:00;;;;;;;14.73;2.28;;;7.70;95.60;;;;;;5055005;28;20047;-88
2022/01/28 07:37:25;;;;;;;13.52;2.40;;;7.70;95.80;;;;;;5054926;28;20108;-87
2022/01/28 07:39:51;;;;;;;12.85;2.35;;;7.70;95.80;;;;;;5055505;28;20033;-87
2022/01/28 07:42:18;;;;;;;11.85;1.90;;;7.70;95.90;;;;;;5054953;28;20370;-90
2022/01/28 07:44:44;;;;;;;14.32;2.00;;;7.70;95.70;;;;;;5055066;28;20036;-87
2022/01/28 07:47:10;;;;;;;21.38;2.00;;;7.60;95.40;;;;;;5055252;28;20033;-90
2022/01/28 07:49:35;;;;;;;18.10;1.58;;;7.50;95.30;;;;;;5055376;28;20036;-86
2022/01/28 07:52:03;;;;;;;10.77;1.75;;;7.30;95.30;;;;;;5054524;28;20021;-86
2022/01/28 07:54:28;;;;;;;13.02;2.00;;;7.20;95.50;;;;;;5054976;28;20029;-90
2022/01/28 07:56:54;;;;;;;17.23;2.42;;;7.30;95.90;;;;;;5054205;28;20021;-83
2022/01/28 07:59:21;;;;;;;17.65;1.58;;;7.30;95.90;;;;;;5054052;28;20033;-87
2022/01/28 08:01:47;;;;;;;13.32;1.92;;;7.20;95.90;;;;;;5053506;28;20032;-86
2022/01/28 08:04:13;;;;;;;9.98;1.75;;;7.20;96.00;;;;;;5053349;28;20431;-82
2022/01/28 08:06:40;;;;;;;17.95;1.80;;;7.20;96.00;;;;;;5053855;28;20073;-88
2022/01/28 08:09:05;;;;;;;14.45;2.20;;;7.10;96.10;;;;;;5053562;28;20032;-87
2022/01/28 08:11:31;;;;;;;9.13;1.35;;;7.00;96.10;;;;;;5055190;28;20017;-82
2022/01/28 08:13:58;;;;;;;12.52;1.48;;;7.00;96.30;;;;;;5055296;28;20048;-81
2022/01/28 08:16:23;;;;;;;11.52;1.55;;;7.00;96.50;;;;;;5056200;28;20025;-81
2022/01/28 08:18:49;;;;;;;12.93;1.67;;;7.00;96.60;;;;;;5067433;28;20040;-82
2022/01/28 08:21:16;;;;;;;12.60;1.67;;;7.00;96.70;;;;;;5067697;28;20040;-81
2022/01/28 08:23:42;;;;;;;14.82;2.08;;;7.10;96.70;;;;;;5057882;28;20506;-81
2022/01/28 08:26:08;;;;;;;13.23;1.58;;;7.20;96.70;;;;;;5054886;28;20025;-81
2022/01/28 08:28:34;;;;;;;12.18;1.90;;;7.20;96.60;;;;;;5054685;28;20048;-83
2022/01/28 08:31:00;;;;;;;13.10;1.50;;;7.30;96.70;;;;;;5054759;28;20029;-83
2022/01/28 08:33:26;;;;;;;15.85;1.60;;;7.40;96.60;;;;;;5055449;28;20057;-85
2022/01/28 08:35:54;;;;;;;11.52;1.65;;;7.50;96.50;;;;;;5054636;28;20063;-84
2022/01/28 08:38:31;;;;;;;11.85;1.77;;;7.50;96.30;;;;;;5054219;28;20526;-84
2022/01/28 08:40:59;;;;;;;11.38;1.83;;;7.50;96.20;;;;;;5054862;28;20037;-84
2022/01/28 08:43:28;;;;;;;12.55;2.53;;;7.60;96.20;;;;;;5066319;28;20083;-83
2022/01/28 08:45:54;;;;;;;13.35;2.38;;;7.70;96.20;;;;;;5034808;28;20449;-83
2022/01/28 08:48:19;;;;;;;14.75;2.53;;;7.80;96.20;;;;;;5034612;28;20022;-84
2022/01/28 08:50:45;;;;;;;15.38;2.67;;;7.90;96.20;;;;;;5034985;28;20484;-86
2022/01/28 08:53:11;;;;;;;14.63;2.20;;;7.90;95.80;;;;;;5034561;28;20377;-81
2022/01/28 08:55:38;;;;;;;12.50;2.05;;;7.90;95.90;;;;;;5033797;28;20435;-80
2022/01/28 08:58:05;;;;;;;20.05;2.50;;;8.00;95.70;;;;;;5034284;28;20025;-82
2022/01/28 09:00:30;;;;;;;10.48;1.38;;;8.00;95.70;;;;;;5034705;28;20417;-86
2022/01/28 09:02:56;;;;;;;10.95;1.80;;;8.10;95.80;;;;;;5036799;28;20057;-85
2022/01/28 09:05:23;;;;;;;16.58;2.42;;;8.20;95.70;;;;;;5054184;28;20357;-84
2022/01/28 09:07:51;;;;;;;14.20;1.73;;;8.20;95.60;;;;;;5053220;28;20049;-83
2022/01/28 09:10:24;;;;;;;12.85;1.92;;;8.20;95.60;;;;;;5053179;28;20029;-86
2022/01/28 09:13:10;;;;;;;;;;;8.30;95.50;;;;;;5053761;28;20052;-85
2022/01/28 09:15:40;;;;;;;12.00;2.15;;;8.40;95.40;;;;;;5053538;28;19928;-87
2022/01/28 09:18:07;;;;;;;13.27;1.73;;;8.40;95.30;;;;;;5068934;28;20033;-84
2022/01/28 09:20:34;;;;;;;14.23;2.05;;;8.50;95.40;;;;;;5062446;28;20025;-79
2022/01/28 09:23:00;;;;;;;12.82;2.50;;;8.50;95.20;;;;;;5053986;28;20035;-82
2022/01/28 09:25:27;;;;;;;19.50;3.28;;;8.50;95.30;;;;;;5051871;28;20033;-79
2022/01/28 09:27:52;;;;;;;17.30;2.13;;;8.60;95.40;;;;;;5052521;28;20101;-85
2022/01/28 09:30:19;;;;;;;14.15;2.33;;;8.70;95.20;;;;;;5051200;28;20531;-84
2022/01/28 09:32:44;;;;;;;14.82;1.65;;;8.70;94.90;;;;;;5051591;28;20029;-80
2022/01/28 09:35:10;;;;;;;12.98;2.15;;;8.70;95.10;;;;;;5052059;28;20029;-83
2022/01/28 09:37:36;;;;;;;16.98;2.10;;;8.80;95.30;;;;;;5051919;28;20025;-83
2022/01/28 09:40:06;;;;;;;13.15;1.98;;;8.80;94.90;;;;;;5051574;28;20095;-83
2022/01/28 09:42:35;;;;;;;21.95;2.38;;;8.90;94.80;;;;;;5047653;28;20031;-81
2022/01/28 09:45:03;;;;;;;22.63;2.17;;;8.90;94.40;;;;;;5050613;28;20059;-80
2022/01/28 09:47:31;;;;;;;13.85;1.58;;;8.90;94.40;;;;;;5051353;28;20082;-87
2022/01/28 09:49:57;;;;;;;13.50;1.50;;;8.90;94.40;;;;;;5050264;28;20028;-79
2022/01/28 09:52:22;;;;;;;19.65;1.75;;;9.00;94.30;;;;;;5051858;28;20013;-82
2022/01/28 09:54:48;;;;;;;14.07;1.88;;;8.90;94.00;;;;;;5051275;28;20444;-85
2022/01/28 09:57:19;;;;;;;23.35;2.22;;;9.00;94.00;;;;;;5052023;28;20033;-83
2022/01/28 09:59:45;;;;;;;11.65;1.65;;;9.00;93.80;;;;;;5051935;28;20017;-80
2022/01/28 10:02:11;;;;;;;12.10;1.50;;;9.00;93.90;;;;;;5051857;28;20381;-86
2022/01/28 10:04:37;;;;;;;22.30;2.38;;;9.10;93.80;;;;;;5052018;28;20120;-83
2022/01/28 10:07:10;;;;;;;13.43;2.65;;;9.10;93.60;;;;;;5052003;28;20124;-79
2022/01/28 10:09:36;;;;;;;20.05;2.15;;;9.10;93.80;;;;;;5052538;28;20476;-78
2022/01/28 10:12:25;;;;;;;16.02;2.00;;;9.20;93.50;;;;;;5058372;28;20044;-82
2022/01/28 10:15:00;;;;;;;13.82;1.83;;;9.20;93.50;;;;;;5067261;28;20041;-84
2022/01/28 10:17:26;;;;;;;18.20;1.83;;;9.30;93.40;;;;;;5057622;28;20032;-79
2022/01/28 10:20:05;;;;;;;17.33;1.73;;;9.40;93.10;;;;;;5052215;28;20029;-78
2022/01/28 10:22:32;;;;;;;16.23;1.75;;;9.50;92.80;;;;;;5046139;28;20481;-85
2022/01/28 10:24:57;;;;;;;14.05;1.48;;;9.50;92.40;;;;;;5045243;28;20037;-78
2022/01/28 10:27:23;;;;;;;17.38;2.50;;;9.50;92.00;;;;;;5052534;28;20017;-78
2022/01/28 10:29:49;;;;;;;14.98;1.65;;;9.60;92.00;;;;;;5051796;28;20021;-78
2022/01/28 10:32:17;;;;;;;17.38;2.63;;;9.60;90.70;;;;;;5050476;28;20029;-77
2022/01/28 10:34:44;;;;;;;18.85;2.13;;;9.60;90.80;;;;;;5050381;28;20079;-82
2022/01/28 10:37:22;;;;;;;13.20;2.10;;;9.70;90.70;;;;;;5050211;28;20033;-79
2022/01/28 10:40:11;;;;;;;14.35;1.92;;;9.80;90.40;;;;;;5050452;28;20124;-81
2022/01/28 10:42:52;;;;;;;11.98;1.40;;;9.70;89.80;;;;;;5049175;28;20021;-81
2022/01/28 10:45:20;;;;;;;17.38;1.73;;;9.80;90.40;;;;;;5051185;28;20040;-81
2022/01/28 10:47:48;;;;;;;13.70;2.20;;;10.00;90.80;;;;;;5051126;28;20053;-81
2022/01/28 10:50:28;;;;;;;16.13;1.98;;;10.10;90.40;;;;;;5049313;28;20032;-80
2022/01/28 10:53:05;;;;;;;19.70;1.88;;;10.20;89.60;;;;;;5054674;28;20025;-81
2022/01/28 10:55:33;;;;;;;12.30;1.52;;;10.30;89.00;;;;;;5054673;28;20041;-80
2022/01/28 10:58:04;;;;;;;23.17;2.25;;;10.20;87.90;;;;;;5054499;28;20039;-81
2022/01/28 11:00:39;;;;;;;15.00;1.90;;;10.20;88.50;;;;;;5054484;28;20056;-81
2022/01/28 11:03:06;;;;;;;16.10;2.33;;;10.20;87.70;;;;;;5053925;28;20411;-80
2022/01/28 11:05:34;;;;;;;11.93;1.55;;;10.10;86.70;;;;;;5055182;28;20024;-81
2022/01/28 11:08:02;;;;;;;12.57;1.80;;;10.10;87.60;;;;;;5056897;28;20048;-82
2022/01/28 11:10:28;;;;;;;11.32;2.45;;;10.20;88.80;;;;;;5068786;28;20032;-81
2022/01/28 11:12:54;;;;;;;13.90;1.88;;;10.20;88.20;;;;;;5058415;28;20031;-81
2022/01/28 11:15:22;;;;;;;17.50;2.35;;;10.10;87.20;;;;;;5054546;28;20083;-81
2022/01/28 11:17:49;;;;;;;14.95;1.77;;;10.10;86.20;;;;;;5054106;28;20053;-81
2022/01/28 11:20:20;;;;;;;11.55;1.38;;;10.00;85.60;;;;;;5054384;28;20107;-78
2022/01/28 11:23:14;;;;;;;20.70;2.03;;;9.90;86.00;;;;;;5054931;28;20021;-81
2022/01/28 11:25:39;;;;;;;13.23;1.42;;;9.90;85.00;;;;;;5052136;28;20032;-80
2022/01/28 11:28:10;;;;;;;12.75;1.30;;;9.90;83.90;;;;;;5054361;28;20013;-80
2022/01/28 11:30:43;;;;;;;17.88;2.08;;;9.90;83.90;;;;;;5051927;28;20021;-76
2022/01/28 11:33:11;;;;;;;13.43;1.55;;;10.00;83.20;;;;;;5052861;28;20029;-79
2022/01/28 11:35:49;;;;;;;18.25;1.77;;;10.00;83.00;;;;;;5054409;28;20186;-80
2022/01/28 11:38:29;;;;;;;13.77;1.73;;;10.00;82.70;;;;;;5053721;28;20040;-87
2022/01/28 11:41:00;;;;;;;12.38;1.60;;;10.00;83.00;;;;;;5053383;28;20119;-78
2022/01/28 11:43:32;;;;;;;23.70;2.20;;;10.00;81.40;;;;;;5053786;28;20163;-76
2022/01/28 11:46:19;;;;;;;13.10;1.35;;;10.10;82.20;;;;;;5053050;28;20373;-76
2022/01/28 11:48:57;;;;;;;13.05;1.90;;;10.10;82.60;;;;;;5053383;28;20025;-78
2022/01/28 11:51:44;;;;;;;11.70;2.00;;;10.20;82.00;;;;;;5051413;28;20025;-79
2022/01/28 11:54:12;;;;;;;13.05;1.27;;;10.20;80.90;;;;;;5053463;28;20396;-77
2022/01/28 11:56:40;;;;;;;15.60;1.33;;;10.30;81.60;;;;;;5052486;28;20381;-76
2022/01/28 11:59:10;;;;;;;14.60;1.77;;;10.50;81.20;;;;;;5052564;28;20032;-76
2022/01/28 12:01:58;;;;;;;10.15;1.30;;;10.50;80.30;;;;;;5052214;28;20036;-77
2022/01/28 12:04:24;;;;;;;12.05;1.55;;;10.40;80.00;;;;;;5054599;28;20032;-77
2022/01/28 12:07:14;;;;;;;16.10;1.30;;;10.20;80.40;;;;;;5065431;28;20079;-85
2022/01/28 12:09:45;;;;;;;12.25;1.10;;;10.20;81.30;;;;;;5056397;28;20029;-80
2022/01/28 12:12:13;;;;;;;9.93;1.20;;;10.10;81.50;;;;;;5053704;28;20055;-81
2022/01/28 12:14:57;;;;;;;14.10;1.20;;;10.00;81.60;;;;;;5051314;28;20037;-80
2022/01/28 12:17:32;;;;;;;15.18;1.67;;;10.00;82.60;;;;;;5052889;28;20025;-79
2022/01/28 12:20:21;;;;;;;11.77;1.52;;;9.90;83.30;;;;;;5052657;28;20037;-82
2022/01/28 12:23:00;;;;;;;9.90;1.50;;;9.90;84.40;;;;;;5052618;28;20126;-83
2022/01/28 12:25:43;;;;;;;17.35;2.50;;;10.10;85.40;;;;;;5052735;28;20052;-86
2022/01/28 12:28:15;;;;;;;12.70;1.02;;;10.30;85.10;;;;;;5052986;28;20080;-78
2022/01/28 12:30:44;;;;;;;11.10;1.50;;;10.50;83.70;;;;;;5054483;28;20044;-89
2022/01/28 12:33:10;;;;;;;13.82;1.10;;;10.70;82.80;;;;;;5054736;28;20028;-88
2022/01/28 12:35:41;;;;;;;16.25;1.48;;;10.90;82.60;;;;;;5055584;28;20029;-89
2022/01/28 12:38:09;;;;;;;11.20;1.60;;;10.90;79.70;;;;;;5055668;28;20021;-85
2022/01/28 12:40:41;;;;;;;13.13;1.63;;;10.90;79.80;;;;;;5053985;28;20031;-84
2022/01/28 12:43:08;;;;;;;15.85;1.83;;;10.90;78.90;;;;;;5052509;28;20031;-81
2022/01/28 12:45:34;;;;;;;13.30;1.20;;;11.00;78.30;;;;;;5052382;28;20347;-81
2022/01/28 12:48:00;;;;;;;18.77;1.30;;;11.00;77.40;;;;;;5051455;28;20480;-81
2022/01/28 12:50:28;;;;;;;13.82;1.38;;;11.10;77.50;;;;;;5050896;28;20029;-87
2022/01/28 12:52:54;;;;;;;7.43;1.35;;;11.20;77.50;;;;;;5050239;28;20025;-84
2022/01/28 12:55:20;;;;;;;11.68;1.05;;;11.30;77.70;;;;;;5050805;28;20519;-84
2022/01/28 12:57:47;;;;;;;8.75;1.00;;;11.40;77.70;;;;;;5053083;28;20070;-84
2022/01/28 13:00:15;;;;;;;8.75;1.40;;;11.50;78.50;;;;;;5058919;28;20035;-84
2022/01/28 13:02:42;;;;;;;10.95;1.30;;;11.60;79.50;;;;;;5069977;28;20032;-82
2022/01/28 13:05:13;;;;;;;8.45;0.80;;;11.70;78.30;;;;;;5065264;28;20036;-83
2022/01/28 13:10:30;;;;;;;10.02;1.10;;;11.70;78.70;;;;;;5053853;28;20048;-80
2022/01/28 13:13:07;;;;;;;9.30;0.93;;;11.70;78.80;;;;;;5053517;28;20385;-81
2022/01/28 13:15:34;;;;;;;9.82;1.23;;;11.80;79.40;;;;;;5052977;28;20082;-82
2022/01/28 13:18:02;;;;;;;8.50;1.33;;;11.70;79.80;;;;;;5053534;28;20025;-81
2022/01/28 13:20:38;;;;;;;16.55;1.45;;;11.60;79.70;;;;;;5053211;28;20036;-80
2022/01/28 13:23:04;;;;;;;9.70;1.13;;;11.70;80.60;;;;;;5053494;28;20439;-84
2022/01/28 13:25:29;;;;;;;11.80;1.40;;;11.80;80.80;;;;;;5054075;28;20056;-82
2022/01/28 13:28:06;;;;;;;8.93;0.90;;;11.90;79.30;;;;;;5053998;28;20021;-84
2022/01/28 13:30:37;;;;;;;7.22;1.05;;;11.80;78.40;;;;;;5053320;28;20484;-79
2022/01/28 13:33:08;;;;;;;5.82;0.80;;;11.70;78.20;;;;;;5052921;28;20396;-78
2022/01/28 13:35:37;;;;;;;11.20;1.10;;;11.70;78.10;;;;;;5053348;28;20044;-79
2022/01/28 13:38:13;;;;;;;3.72;0.40;;;11.60;76.90;;;;;;5053446;28;20029;-79
2022/01/28 13:40:39;;;;;;;8.43;0.90;;;11.60;77.40;;;;;;5053528;28;20102;-80
2022/01/28 13:43:21;;;;;;;6.57;0.88;;;11.60;77.10;;;;;;5053234;28;20032;-79
2022/01/28 13:45:55;;;;;;;10.45;1.35;;;11.50;77.50;;;;;;5052943;28;20110;-74
2022/01/28 13:48:37;;;;;;;10.82;1.10;;;11.50;78.80;;;;;;5053079;28;20426;-76
2022/01/28 13:51:16;;;;;;;12.85;1.00;;;11.50;79.60;;;;;;5053119;28;20197;-76
2022/01/28 13:56:32;;;;;;;10.05;1.05;;;11.50;79.00;;;;;;5037408;28;20041;-77
2022/01/28 13:58:59;;;;;;;7.65;1.27;;;11.40;78.70;;;;;;5035589;28;20036;-76
2022/01/28 14:01:27;;;;;;;8.07;1.05;;;11.30;78.80;;;;;;5033318;28;20136;-76
2022/01/28 14:03:58;;;;;;;8.55;1.23;;;11.10;79.60;;;;;;5032928;28;20034;-75
2022/01/28 14:06:33;;;;;;;8.43;1.80;;;11.10;79.80;;;;;;5032450;28;20048;-76